Terminal Aerodrome Forecast
Issued by NWS Brownsville, TX

Home | Current Version | Previous Version | Text Only | Print | Product List | Glossary On
Versions: 1 2 3 4 5 6 7 8 9 10 11 12 13 14 15 16 17 18
000
FTUS44 KBRO 311700
TAFHRL
TAF
KHRL 311722Z 3118/0118 16018G24KT P6SM SKC
     FM010100 14012G18KT P6SM SKC
     FM010700 15010KT P6SM SKC
     FM011400 17011KT P6SM SCT040=

USA.gov is the U.S. government's official web portal to all federal, state and local government web resources and services.